Wilmington, NC

1:04 PM EDT on September 05, 2015 (GMT -0400)
NC STATE PORTS | | Change Station
CLOSE
Current Station
Personal Weather Station
Location: WILMINGTON, NC
Elevation: 12 ft
Nearby Weather Stations

Elev 12 ft 34.20 °N, 77.95 °W | Updated 58 seconds ago

Clear
Clear
82.6 °F
Feels Like 87 °F
N
8.3
Wind Variable Wind from NW
Gusts 11.8 mph

Today
High -- | Low -- °F
--% Chance of Precip.
Yesterday
High -- | Low -- °F
Precip. -- in
6:47 AM 7:32 PM
Waning Gibbous, 47% visible
Pressure 30.07 in
Visibility 10.0 miles
Clouds Few 3600 ft
Heat Index 87 °F
Dew Point 71 °F
Humidity 69%
Rainfall Not available.
Snow Depth Not available.
UV 9 out of 12
Pollen 8.30 out of 12
Air Quality Not available.
Flu Activity Not available.
METAR KILM 051653Z 36012KT 10SM FEW036 31/21 A3007 RMK AO2 SLP183 T03060211
Pressure 30.07 in
Visibility 10.0 miles
Clouds Few 3600 ft
Heat Index 87 °F
Dew Point 71 °F
Humidity 69%
Rainfall Not available.
Snow Depth Not available.
UV 9 out of 12
Pollen 8.30 out of 12
Air Quality Not available.
Flu Activity Not available.
METAR KILM 051653Z 36012KT 10SM FEW036 31/21 A3007 RMK AO2 SLP183 T03060211

10-Day Weather Forecast

×

Almanac

Astronomy

Sep. 05, 2015 Rise Set
Actual Time
Civil Twilight
Nautical Twilight
Astronomical Twilight
Moon
Length of Visible Light
Length of Day
Tomorrow will be .
, % of the Moon is Illuminated

Today's Extremes

State Highs State Lows

Community

WunderPhotos

Upload Photos

1,852,503 photos uploaded!

WunderBlogs® & News

Nearby

Air Quality

  Air Quality AQ Index Pollutant
Not available.

Snow Depth

Station Depth Elevation

Earthquake Activity

City Distance Mag. Time & Date
Minimum magnitude displayed is 2.5.

Coastal Water Temperatures

Place Temperature

Stations

Nearby Weather Stations

Station Location Temp. Windchill Dew Point Humidity Wind Precip. Elev Updated Type